Siren, Wisconsin
Current Conditions -  °F | °C
As of 4:35 AM on Sunday 21 Dec 2014 (Local Time) from KRZN Reporting Station
Overcast Overcast  
Wind Chill: 26°   Ceiling: 1400
Heat Index: 32°   Visibility: 10mi
Dew Point: 28°   Wind: 6mph
Humidity: 85%   Direction: 160°SSE
Pressure: 29.98"   Gusts: NA
Location:  45.79°N, 92.38°W
Report Text: KRZN 211035Z AUTO 16005KT 10SM OVC014 00/M02 A2998 RMK AO2 T10021025
Loading
Personal Weather Stations






























Interactive Weather Map New forecast layout! Learn more

10-Day Weather Forecast

Advertisements
Track Severe Weather on mobile